This is the latest recevied weather packets stored in our database for station/object DB0WV-6. If no packets are shown the sender has not sent any weather packets the latest 10 day(s).
| Time | Temp. | Humidity | Pressure | Rain* | Wind** | Luminosity | Snow |
|---|---|---|---|---|---|---|---|
| 1777554615 | 12.78° C | 31% | 1020 hPa | 0 mm | - | - | - |
| 1777553414 | 12.78° C | 33% | 1020 hPa | 0 mm | - | - | - |
| 1777552814 | 12.78° C | 33% | 1020.1 hPa | 0 mm | - | - | - |
| 1777552215 | 12.78° C | 34% | 1020.2 hPa | 0 mm | - | - | - |
| 1777550435 | 12.22° C | 35% | 1020.2 hPa | 0 mm | - | - | - |
| 1777548615 | 11.67° C | 39% | 1020.3 hPa | 0 mm | - | - | - |
| 1777540815 | 10° C | 44% | 1020.5 hPa | 0 mm | - | - | - |
| 1777533617 | 5.56° C | 52% | 1020.3 hPa | 0 mm | - | - | - |
| 1777525815 | 2.22° C | 62% | 1019.6 hPa | 0 mm | - | - | - |
| 1777524015 | 2.22° C | 64% | 1019.5 hPa | 0 mm | - | - | - |
| 1777519815 | 2.78° C | 65% | 1019.5 hPa | 0 mm | - | - | - |
| 1777519216 | 2.78° C | 65% | 1019.5 hPa | 0 mm | - | - | - |
| 1777514418 | 3.89° C | 60% | 1019.3 hPa | 0 mm | - | - | - |
| 1777503614 | 6.67° C | 50% | 1019.1 hPa | 0 mm | - | - | - |
| 1777500914 | 7.78° C | 47% | 1018.8 hPa | 0 mm | - | - | - |
| 1777499714 | 7.78° C | 46% | 1018.8 hPa | 0 mm | - | - | - |
| 1777495514 | 8.89° C | 44% | 1018.4 hPa | 0 mm | - | - | - |
| 1777494914 | 9.44° C | 43% | 1018.4 hPa | 0 mm | - | - | - |
| 1777488314 | 11.67° C | 44% | 1017.7 hPa | 0 mm | - | - | - |
| 1777484734 | 12.78° C | 39% | 1017 hPa | 0 mm | - | - | - |
| 1777475115 | 15° C | 34% | 1016.8 hPa | 0 mm | - | - | - |
| 1777473915 | 15° C | 33% | 1016.8 hPa | 0 mm | - | - | - |
| 1777473316 | 15.56° C | 35% | 1016.8 hPa | 0 mm | - | - | - |
| 1777472715 | 15° C | 35% | 1016.8 hPa | 0 mm | - | - | - |
| 1777470315 | 15° C | 37% | 1016.8 hPa | 0 mm | - | - | - |
* Rain latest hour (hover to see other rain measurements)
** Current wind speed in m/s (hover to see current wind gust speed)